Podatki so pridobljeni v realnem času in so neuradni. Podatki so informativne narave. Opozarjamo, da ne prevzamemo odgovornosti za morebitno nastalo škodo, ki bi nastala zaradi odločitve, sprejete na osnovi podatkov s portala vremenske postaje Rače.


VREMENSKA POSTAJA

Brezula - RAČE

Domov - PORTAL - Domov

Klikni na napis za vrnitev na portal.



Obiščite še:

Template documentation
and downloads

And another site



METAR v bližini

   
LJMB - Maribor
Posodobljeno: 23-01-2019 09:00
Rahlo sneženje, Meglica, Oblačno  
Rahlo sneženje, Meglica, Oblačno  
   Veter: SSV 9.3 km/h
Veter: SSV 9.3 km/h
Temperatura: -4°C
Občutek mraza: -8°C
Točka rosišča: -5°C
Vlažnost: 93%
Zračni tlak: 1001 hPa
Oblaki: Oblačno
Vidljivost: 4 km
Podrobnosti o oblakih: Delno oblačno 500 ft,
Oblačno 2000 ft
LJMB 230800Z 03005KT 4000 -SN BR SCT005 OVC020 M04/M05 Q1001 R32/493093
LJLJ - Ljubljana
Posodobljeno: 23-01-2019 09:00
Rahlo sneženje, Meglica, Oblačno  
Rahlo sneženje, Meglica, Oblačno  
   Veter: Različen 1.9 km/h
Veter: Različen 1.9 km/h
Temperatura: -4°C
Točka rosišča: -4°C
Vlažnost: 100%
Zračni tlak: 1000 hPa
Oblaki: Oblačno
Vidljivost: 3 km
Podrobnosti o oblakih: Oblačno 1200 ft
LJLJ 230800Z VRB01KT 3000 -SN BR OVC012 M04/M04 Q1000 R30/590195 NOSIG
LOWG - Graz
Posodobljeno: 23-01-2019 08:50
Rahlo sneženje, Meglica, Oblačno  
Rahlo sneženje, Meglica, Oblačno  
   Veter: Različen 3.7 km/h
Veter: Različen 3.7 km/h
Temperatura: -5°C
Točka rosišča: -6°C
Vlažnost: 93%
Zračni tlak: 1001 hPa
Oblaki: Oblačno
Vidljivost: 3 km
Podrobnosti o oblakih: Nekaj oblakov 300 ft,
Delno oblačno 2000 ft,
Oblačno 4500 ft
LOWG 230750Z VRB02KT 3000 -SN BR FEW003 SCT020 OVC045 M05/M06 Q1001 R17/490195 NOSIG
LDZA - Zagreb
Posodobljeno: 23-01-2019 09:00
Meglica, Oblačno  
Meglica, Oblačno  
   Veter: Različen 1.9 km/h
Veter: Različen 1.9 km/h
Temperatura: -3°C
Točka rosišča: -5°C
Vlažnost: 86%
Zračni tlak: 1002 hPa
Oblaki: Oblačno
Vidljivost: 4 km
Podrobnosti o oblakih: Oblačno 1400 ft
LDZA 230800Z VRB01KT 4000 BR OVC014 M03/M05 Q1002 R05/590295 NOSIG
  

Skripto razvil  Saratoga-weather.org Prilagoditev za tampleto od  Weerstation Leuven

Vremenski podatki so objavljeni na:

UK Metoffice

European Weather Network

WeatherCloud

Weather Underground

AWEKAS

Citizen Weather Observer Program (CWOP)

HAMweather, WeatherForYou, PWS Weather

Oprema, ki se uporablja:

Vremenska postaja
Oregon Scientific WMR200

Program za vreme
Cumulus

Server za vreme
Q-Box 270N

Ponudnik
IKONIO s.p.

Oregon Scientific WMR200

Cumulus

Q-Box 270N

IKONIO s.p.



VREMENSKA POSTAJA

Brezula - RAČE

Domov - PORTAL - Domov

Klikni na napis za vrnitev na portal.